createdAt,value
2022-10-04T00:00:25.286Z,65387.91
2022-10-04T00:03:20.024Z,65387.91
2022-10-04T00:06:51.143Z,65387.91
2022-10-04T00:10:22.575Z,65387.91
2022-10-04T00:13:54.250Z,65387.91
2022-10-04T00:17:25.406Z,65387.91
2022-10-04T00:21:00.013Z,65387.91
2022-10-04T00:24:28.853Z,65387.91
2022-10-04T00:28:12.330Z,65387.91
2022-10-04T00:31:57.559Z,65387.91
2022-10-04T00:35:50.643Z,65387.91
2022-10-04T00:39:26.698Z,65387.91
2022-10-04T00:43:04.132Z,65387.91
2022-10-04T00:46:36.770Z,65387.91
2022-10-04T00:50:11.979Z,65387.91
2022-10-04T00:53:52.748Z,65387.91
2022-10-04T00:57:25.150Z,65387.91
2022-10-04T01:00:13.471Z,65387.91
2022-10-04T01:03:47.772Z,65387.91
2022-10-04T01:07:17.322Z,65387.91
2022-10-04T01:10:48.771Z,65387.91
2022-10-04T01:14:30.576Z,65387.91
2022-10-04T01:18:11.825Z,65387.91
2022-10-04T01:21:39.609Z,65387.91
2022-10-04T01:25:43.288Z,65387.91
2022-10-04T01:29:11.214Z,65387.91
2022-10-04T01:32:39.404Z,65387.91
2022-10-04T01:36:06.816Z,65387.91
2022-10-04T01:39:34.234Z,65387.91
2022-10-04T01:43:05.607Z,65387.91
2022-10-04T01:46:36.581Z,65387.91
2022-10-04T01:50:07.715Z,65387.91
2022-10-04T01:53:37.151Z,65387.91
2022-10-04T01:57:11.873Z,65387.91
2022-10-04T02:00:44.072Z,65387.91
2022-10-04T02:04:21.356Z,65387.91
2022-10-04T02:07:50.061Z,65387.91
2022-10-04T02:11:21.304Z,65387.91
2022-10-04T02:14:48.273Z,65387.91
2022-10-04T02:17:23.904Z,65387.91
2022-10-04T02:20:50.903Z,65387.91
2022-10-04T02:23:20.214Z,65387.91
2022-10-04T02:25:48.214Z,65387.91
2022-10-04T02:28:18.790Z,65387.91
2022-10-04T02:31:09.836Z,65387.91
2022-10-04T02:33:42.049Z,101075.41
2022-10-04T02:36:10.949Z,101064.84
2022-10-04T02:38:43.772Z,101071.78
2022-10-04T02:41:22.092Z,101081.06
2022-10-04T02:43:54.510Z,101076.59
2022-10-04T02:46:26.579Z,101082.16
2022-10-04T02:48:58.087Z,101074.59
2022-10-04T02:51:31.912Z,101074.13
2022-10-04T02:54:08.040Z,101074.13
2022-10-04T02:56:37.952Z,101049.81
2022-10-04T02:59:08.583Z,101067.31
2022-10-04T03:01:49.892Z,101041.47
2022-10-04T03:04:17.769Z,101066.78
2022-10-04T03:06:46.731Z,101067.34
2022-10-04T03:09:15.868Z,101038.38
2022-10-04T03:11:44.753Z,101063.50
2022-10-04T03:14:20.353Z,101053.47
2022-10-04T03:16:50.897Z,101047.66
2022-10-04T03:19:20.085Z,101056.25
2022-10-04T03:22:00.720Z,101055.22
2022-10-04T03:24:32.814Z,101056.53
2022-10-04T03:27:05.286Z,101061.53
2022-10-04T03:29:37.864Z,101049.78
2022-10-04T03:32:06.438Z,101060.59
2022-10-04T03:34:37.452Z,101063.59
2022-10-04T03:37:08.129Z,101049.16
2022-10-04T03:39:39.239Z,101039.38
2022-10-04T03:42:13.099Z,101039.19
2022-10-04T03:44:42.970Z,101039.28
2022-10-04T03:47:14.215Z,101038.69
2022-10-04T03:49:47.402Z,101039.66
2022-10-04T03:52:22.202Z,101040.94
2022-10-04T03:54:52.561Z,101032.00
2022-10-04T03:57:20.445Z,65387.91
2022-10-04T03:59:50.390Z,65387.91
2022-10-04T04:02:25.459Z,65387.91
2022-10-04T04:05:04.005Z,65387.91
2022-10-04T04:07:39.285Z,65387.91
2022-10-04T04:10:20.420Z,65387.91
2022-10-04T04:13:20.582Z,65387.91
2022-10-04T04:15:50.332Z,65387.91
2022-10-04T04:18:31.355Z,65387.91
2022-10-04T04:21:15.062Z,65387.91
2022-10-04T04:23:48.619Z,65387.91
2022-10-04T04:26:28.097Z,65387.91
2022-10-04T04:29:03.737Z,65387.91
2022-10-04T04:32:06.068Z,65387.91
2022-10-04T04:34:45.738Z,65387.91
2022-10-04T04:37:14.740Z,65387.91
2022-10-04T04:39:49.105Z,65387.91
2022-10-04T04:42:19.297Z,65387.91
2022-10-04T04:45:29.534Z,65387.91
2022-10-04T04:48:15.031Z,65387.91
2022-10-04T04:50:57.138Z,65387.91
2022-10-04T04:54:11.851Z,65387.91
2022-10-04T04:56:50.150Z,65387.91
2022-10-04T05:00:18.933Z,65387.91
2022-10-04T05:02:58.572Z,65387.91
2022-10-04T05:05:30.325Z,65387.91
2022-10-04T05:08:40.174Z,65387.91
2022-10-04T05:11:26.065Z,65387.91
2022-10-04T05:14:09.184Z,65387.91
2022-10-04T05:16:44.948Z,65387.91
2022-10-04T05:19:33.199Z,65387.91
2022-10-04T05:22:33.192Z,65387.91
2022-10-04T05:25:08.445Z,65387.91
2022-10-04T05:27:45.696Z,65387.91
2022-10-04T05:30:25.450Z,65387.91
2022-10-04T05:33:01.278Z,100999.44
2022-10-04T05:35:54.093Z,65387.91
2022-10-04T05:38:33.233Z,65387.91
2022-10-04T05:41:10.485Z,65387.91
2022-10-04T05:43:47.481Z,65387.91
2022-10-04T05:46:20.246Z,65387.91
2022-10-04T05:48:54.957Z,65387.91
2022-10-04T05:51:28.691Z,65387.91
2022-10-04T05:54:15.693Z,65387.91
2022-10-04T05:57:39.100Z,100999.44
2022-10-04T06:00:37.178Z,65387.91
2022-10-04T06:04:04.890Z,78663.31
2022-10-04T06:07:31.377Z,65387.91
2022-10-04T06:11:05.462Z,65387.91
2022-10-04T06:14:30.540Z,65387.91
2022-10-04T06:17:24.786Z,65387.91
2022-10-04T06:20:27.172Z,101019.50
2022-10-04T06:24:00.228Z,65387.91
2022-10-04T06:27:35.581Z,65387.91
2022-10-04T06:31:24.545Z,65387.91
2022-10-04T06:34:58.985Z,65387.91
2022-10-04T06:39:01.980Z,65387.91
2022-10-04T06:42:22.687Z,65387.91
2022-10-04T06:45:23.991Z,101019.50
2022-10-04T06:48:24.594Z,65387.91
2022-10-04T06:51:38.175Z,65387.91
2022-10-04T06:55:02.901Z,65387.91
2022-10-04T06:58:23.691Z,101019.50
2022-10-04T07:01:50.036Z,65387.91
2022-10-04T07:05:13.530Z,65387.91
2022-10-04T07:08:43.861Z,65387.91
2022-10-04T07:12:18.471Z,65387.91
2022-10-04T07:15:46.250Z,65387.91
2022-10-04T07:19:17.820Z,65387.91
2022-10-04T07:22:43.743Z,65387.91
2022-10-04T07:26:19.650Z,65387.91
2022-10-04T07:29:48.087Z,65387.91
2022-10-04T07:33:16.371Z,65387.91
2022-10-04T07:36:46.930Z,65387.91
2022-10-04T07:40:21.168Z,65387.91
2022-10-04T07:43:49.121Z,65387.91
2022-10-04T07:47:25.729Z,65387.91
2022-10-04T07:50:59.401Z,65387.91
2022-10-04T07:54:33.776Z,65387.91
2022-10-04T07:58:08.103Z,65387.91
2022-10-04T08:01:41.558Z,65387.91
2022-10-04T08:04:41.164Z,65387.91
2022-10-04T08:08:22.508Z,65387.91
2022-10-04T08:10:57.662Z,101019.47
2022-10-04T08:14:28.136Z,65387.91
2022-10-04T08:17:58.100Z,65387.91
2022-10-04T08:21:46.225Z,65387.91
2022-10-04T08:25:16.875Z,65387.91
2022-10-04T08:32:05.516Z,65387.91
2022-10-04T08:35:16.822Z,65387.91
2022-10-04T08:38:01.058Z,101164.78
2022-10-04T08:40:53.515Z,101192.28
2022-10-04T08:44:05.597Z,65387.91
2022-10-04T08:47:40.916Z,65387.91
2022-10-04T08:50:38.919Z,65387.91
2022-10-04T08:53:35.213Z,65387.91
2022-10-04T08:56:22.333Z,101300.84
2022-10-04T08:59:12.732Z,101314.69
2022-10-04T09:01:56.471Z,101320.03
2022-10-04T09:05:00.343Z,101337.66
2022-10-04T09:07:49.491Z,101327.03
2022-10-04T09:10:36.297Z,101338.84
2022-10-04T09:13:24.987Z,101368.00
2022-10-04T09:15:54.227Z,101398.41
2022-10-04T09:18:46.665Z,101371.63
2022-10-04T09:21:27.588Z,101414.56
2022-10-04T09:24:31.331Z,101410.50
2022-10-04T09:27:06.922Z,101422.81
2022-10-04T09:30:02.279Z,101420.41
2022-10-04T09:32:46.188Z,101418.09
2022-10-04T09:35:31.996Z,101431.94
2022-10-04T09:38:35.679Z,101424.28
2022-10-04T09:41:22.312Z,101399.59
2022-10-04T09:44:21.671Z,101299.81
2022-10-04T09:47:05.812Z,101230.66
2022-10-04T09:49:53.452Z,101206.31
2022-10-04T09:52:33.853Z,101187.97
2022-10-04T09:55:58.229Z,101174.88
2022-10-04T09:58:52.418Z,101135.38
2022-10-04T10:01:30.995Z,101144.75
2022-10-04T10:04:18.207Z,101150.22
2022-10-04T10:07:14.997Z,101112.28
2022-10-04T10:10:09.685Z,101027.38
2022-10-04T10:13:20.384Z,100974.03
2022-10-04T10:15:59.588Z,100928.09
2022-10-04T10:18:42.776Z,100909.59
2022-10-04T10:21:33.147Z,100875.19
2022-10-04T10:24:37.425Z,100842.41
2022-10-04T10:27:23.765Z,100820.88
2022-10-04T10:30:24.054Z,100810.47
2022-10-04T10:33:24.405Z,100798.94
2022-10-04T10:36:19.234Z,100692.09
2022-10-04T10:39:18.168Z,100625.50
2022-10-04T10:42:11.987Z,100596.56
2022-10-04T10:45:03.104Z,100580.06
2022-10-04T10:47:43.243Z,100597.13
2022-10-04T10:50:56.238Z,100608.38
2022-10-04T10:53:49.201Z,100610.50
2022-10-04T10:56:35.114Z,100622.44
2022-10-04T10:59:51.109Z,100622.47
2022-10-04T11:02:52.892Z,100626.25
2022-10-04T11:06:00.230Z,100634.84
2022-10-04T11:09:15.016Z,100638.59
2022-10-04T11:12:01.488Z,100595.47
2022-10-04T11:14:56.246Z,100582.84
2022-10-04T11:17:42.224Z,100610.06
2022-10-04T11:20:43.333Z,65387.91
2022-10-04T11:23:32.850Z,65387.91
2022-10-04T11:27:28.362Z,65387.91
2022-10-04T11:30:53.609Z,65387.91
2022-10-04T11:33:55.730Z,100584.75
2022-10-04T11:36:56.723Z,65387.91
2022-10-04T11:39:44.754Z,65387.91
2022-10-04T11:42:26.607Z,100615.41
2022-10-04T11:45:36.163Z,65387.91
2022-10-04T11:48:18.256Z,100610.19
2022-10-04T11:51:06.332Z,100590.28
2022-10-04T11:53:55.573Z,65387.91
2022-10-04T11:57:20.285Z,65387.91
2022-10-04T12:00:04.117Z,65387.91
2022-10-04T12:02:57.615Z,65387.91
2022-10-04T12:05:51.049Z,65387.91
2022-10-04T12:08:48.936Z,65387.91
2022-10-04T12:12:26.201Z,65387.91
2022-10-04T12:16:29.637Z,65387.91
2022-10-04T12:20:40.052Z,65387.91
2022-10-04T12:23:42.355Z,65387.91
2022-10-04T12:26:41.569Z,65387.91
2022-10-04T12:30:12.126Z,65387.91
2022-10-04T12:32:57.740Z,65387.91
2022-10-04T12:36:09.742Z,65387.91
2022-10-04T12:39:16.562Z,65387.91
2022-10-04T12:42:08.682Z,65387.91
2022-10-04T12:44:55.346Z,65387.91
2022-10-04T12:47:48.003Z,65387.91
2022-10-04T12:50:27.579Z,65387.91
2022-10-04T12:53:05.120Z,65387.91
2022-10-04T12:55:49.977Z,65387.91
2022-10-04T12:58:25.948Z,65387.91
2022-10-04T13:01:01.394Z,65387.91
2022-10-04T13:03:42.614Z,65387.91
2022-10-04T13:06:21.691Z,100577.53
2022-10-04T13:09:08.631Z,65387.91
2022-10-04T13:11:53.548Z,65387.91
2022-10-04T13:14:36.208Z,65387.91
2022-10-04T13:17:30.852Z,65387.91
2022-10-04T13:20:29.010Z,65387.91
2022-10-04T13:23:01.410Z,65387.91
2022-10-04T13:25:45.612Z,100578.56
2022-10-04T13:28:24.290Z,65387.91
2022-10-04T13:31:00.855Z,65387.91
2022-10-04T13:33:38.452Z,65387.91
2022-10-04T13:36:12.509Z,65387.91
2022-10-04T13:39:07.193Z,65387.91
2022-10-04T13:41:58.035Z,65387.91
2022-10-04T13:44:47.815Z,100591.34
2022-10-04T13:47:36.094Z,100586.44
2022-10-04T13:50:24.963Z,100584.97
2022-10-04T13:53:22.984Z,100592.13
2022-10-04T13:56:18.280Z,100594.53
2022-10-04T13:58:49.172Z,100596.50
2022-10-04T14:01:40.665Z,100590.94
2022-10-04T14:04:22.744Z,100572.66
2022-10-04T14:07:13.603Z,100579.41
2022-10-04T14:10:02.019Z,100551.81
2022-10-04T14:12:48.088Z,100562.09
2022-10-04T14:15:48.111Z,100579.25
2022-10-04T14:18:45.934Z,100569.44
2022-10-04T14:21:48.318Z,100588.66
2022-10-04T14:24:51.608Z,100556.69
2022-10-04T14:27:55.113Z,100539.06
2022-10-04T14:30:25.371Z,100533.66
2022-10-04T14:33:26.850Z,100527.78
2022-10-04T14:36:16.612Z,100530.00
2022-10-04T14:39:14.862Z,100534.66
2022-10-04T14:42:14.467Z,100537.41
2022-10-04T14:45:14.737Z,100525.66
2022-10-04T14:48:25.148Z,100516.09
2022-10-04T14:51:14.829Z,100534.31
2022-10-04T14:53:55.856Z,100534.41
2022-10-04T14:56:43.671Z,100535.44
2022-10-04T14:59:30.479Z,100505.72
2022-10-04T15:02:22.077Z,100533.25
2022-10-04T15:05:28.516Z,100555.94
2022-10-04T15:07:59.900Z,100537.31
2022-10-04T15:10:32.991Z,100539.72
2022-10-04T15:13:12.096Z,100549.72
2022-10-04T15:15:58.663Z,100542.13
2022-10-04T15:18:37.711Z,100514.31
2022-10-04T15:21:13.048Z,100489.84
2022-10-04T15:23:44.048Z,100501.16
2022-10-04T15:26:46.496Z,100533.13
2022-10-04T15:29:23.732Z,100547.69
2022-10-04T15:32:02.592Z,100530.28
2022-10-04T15:34:39.428Z,100496.91
2022-10-04T15:37:19.880Z,100473.81
2022-10-04T15:40:20.989Z,100359.91
2022-10-04T15:43:13.568Z,100251.88
2022-10-04T15:46:03.486Z,100199.47
2022-10-04T15:48:51.370Z,100268.72
2022-10-04T15:51:35.686Z,100347.16
2022-10-04T15:54:36.595Z,100497.59
2022-10-04T15:57:18.071Z,100615.69
2022-10-04T15:59:53.582Z,100685.19
2022-10-04T16:02:42.035Z,100691.63
2022-10-04T16:05:21.837Z,100604.75
2022-10-04T16:08:34.191Z,100530.31
2022-10-04T16:11:14.662Z,100638.56
2022-10-04T16:14:00.199Z,100762.06
2022-10-04T16:16:58.316Z,100916.56
2022-10-04T16:19:47.081Z,101103.84
2022-10-04T16:22:18.309Z,101126.66
2022-10-04T16:24:53.259Z,101154.41
2022-10-04T16:27:41.978Z,101170.97
2022-10-04T16:30:27.822Z,101142.88
2022-10-04T16:33:31.130Z,101090.97
2022-10-04T16:36:11.788Z,101040.09
2022-10-04T16:39:07.464Z,101002.03
2022-10-04T16:41:42.128Z,100962.59
2022-10-04T16:44:29.815Z,100942.59
2022-10-04T16:47:02.979Z,100929.50
2022-10-04T16:49:38.817Z,100906.22
2022-10-04T16:52:47.959Z,100889.00
2022-10-04T16:55:52.017Z,100870.28
2022-10-04T16:58:56.058Z,100868.09
2022-10-04T17:01:55.041Z,100848.31
2022-10-04T17:04:49.242Z,100827.53
2022-10-04T17:07:38.521Z,100810.78
2022-10-04T17:10:21.001Z,100797.34
2022-10-04T17:12:56.370Z,100789.31
2022-10-04T17:15:37.135Z,100767.13
2022-10-04T17:18:18.409Z,100752.78
2022-10-04T17:20:56.663Z,100743.66
2022-10-04T17:23:51.729Z,100732.81
2022-10-04T17:26:30.765Z,100723.38
2022-10-04T17:29:03.809Z,100719.75
2022-10-04T17:31:43.437Z,100713.81
2022-10-04T17:34:27.619Z,100709.63
2022-10-04T17:36:59.770Z,100706.88
2022-10-04T17:39:40.888Z,100710.41
2022-10-04T17:42:19.464Z,100703.53
2022-10-04T17:45:22.108Z,100707.28
2022-10-04T17:48:18.336Z,100697.06
2022-10-04T17:51:14.256Z,100701.03
2022-10-04T17:54:03.915Z,100694.50
2022-10-04T17:56:37.752Z,100689.84
2022-10-04T17:59:11.988Z,100689.47
2022-10-04T18:01:43.796Z,100689.47
2022-10-04T18:04:18.938Z,100681.34
2022-10-04T18:06:53.953Z,100681.34
2022-10-04T18:09:26.809Z,100681.34
2022-10-04T18:11:57.913Z,100688.25
2022-10-04T18:14:59.260Z,100682.00
2022-10-04T18:17:36.775Z,100685.78
2022-10-04T18:20:27.622Z,100677.69
2022-10-04T18:23:02.086Z,100688.31
2022-10-04T18:25:32.023Z,100693.50
2022-10-04T18:28:06.976Z,65387.91
2022-10-04T18:30:35.984Z,100686.84
2022-10-04T18:33:16.396Z,65387.91
2022-10-04T18:35:52.741Z,65387.91
2022-10-04T18:38:29.128Z,65387.91
2022-10-04T18:40:59.002Z,65387.91
2022-10-04T18:43:29.690Z,65387.91
2022-10-04T18:46:05.471Z,100706.59
2022-10-04T18:48:44.205Z,100717.63
2022-10-04T18:51:30.584Z,100727.72
2022-10-04T18:54:24.975Z,100748.25
2022-10-04T18:57:58.978Z,65387.91
2022-10-04T19:00:50.264Z,65387.91
2022-10-04T19:03:25.819Z,100843.97
2022-10-04T19:06:01.422Z,65387.91
2022-10-04T19:08:40.560Z,65387.91
2022-10-04T19:11:15.132Z,65387.91
2022-10-04T19:13:49.005Z,65387.91
2022-10-04T19:16:27.576Z,65387.91
2022-10-04T19:19:06.533Z,65387.91
2022-10-04T19:22:03.622Z,65387.91
2022-10-04T19:24:55.345Z,65387.91
2022-10-04T19:27:27.773Z,65387.91
2022-10-04T19:30:11.950Z,65387.91
2022-10-04T19:33:01.437Z,65387.91
2022-10-04T19:35:50.448Z,65387.91
2022-10-04T19:38:37.280Z,65387.91
2022-10-04T19:41:12.601Z,65387.91
2022-10-04T19:43:52.585Z,65387.91
2022-10-04T19:46:32.147Z,65387.91
2022-10-04T19:48:59.637Z,65387.91
2022-10-04T19:51:35.380Z,65387.91
2022-10-04T19:54:14.699Z,65387.91
2022-10-04T19:56:46.465Z,65387.91
2022-10-04T19:59:18.455Z,65387.91
2022-10-04T20:01:46.139Z,65387.91
2022-10-04T20:04:33.810Z,65387.91
2022-10-04T20:07:03.386Z,65387.91
2022-10-04T20:09:52.037Z,65387.91
2022-10-04T20:12:33.515Z,65387.91
2022-10-04T20:15:43.569Z,65387.91
2022-10-04T20:18:49.847Z,65387.91
2022-10-04T20:21:30.280Z,65387.91
2022-10-04T20:23:57.780Z,65387.91
2022-10-04T20:26:56.602Z,65387.91
2022-10-04T20:30:06.207Z,65387.91
2022-10-04T20:32:56.785Z,65387.91
2022-10-04T20:35:58.568Z,65387.91
2022-10-04T20:38:46.481Z,65387.91
2022-10-04T20:42:03.111Z,65387.91
2022-10-04T20:44:55.553Z,65387.91
2022-10-04T20:47:35.192Z,65387.91
2022-10-04T20:50:08.023Z,65387.91
2022-10-04T20:52:37.554Z,65387.91
2022-10-04T20:55:18.157Z,65387.91
2022-10-04T20:57:46.240Z,65387.91
2022-10-04T21:00:22.046Z,65387.91
2022-10-04T21:02:50.140Z,65387.91
2022-10-04T21:05:25.229Z,65387.91
2022-10-04T21:08:28.544Z,65387.91
2022-10-04T21:11:20.138Z,65387.91
2022-10-04T21:13:51.892Z,65387.91
2022-10-04T21:16:40.852Z,65387.91
2022-10-04T21:19:44.994Z,65387.91
2022-10-04T21:22:38.441Z,65387.91
2022-10-04T21:25:41.465Z,65387.91
2022-10-04T21:28:30.726Z,65387.91
2022-10-04T21:30:58.317Z,65387.91
2022-10-04T21:33:25.754Z,65387.91
2022-10-04T21:35:53.553Z,65387.91
2022-10-04T21:38:23.336Z,65387.91
2022-10-04T21:40:50.855Z,65387.91
2022-10-04T21:43:18.314Z,65387.91
2022-10-04T21:45:45.825Z,65387.91
2022-10-04T21:48:13.338Z,65387.91
2022-10-04T21:50:41.442Z,65387.91
2022-10-04T21:53:08.876Z,65387.91
2022-10-04T21:55:37.697Z,65387.91
2022-10-04T21:58:05.147Z,65387.91
2022-10-04T22:00:32.609Z,65387.91
2022-10-04T22:03:00.050Z,65387.91
2022-10-04T22:05:28.852Z,65387.91
2022-10-04T22:07:58.072Z,65387.91
2022-10-04T22:10:26.637Z,65387.91
2022-10-04T22:12:56.991Z,65387.91
2022-10-04T22:15:26.320Z,65387.91
2022-10-04T22:17:54.101Z,65387.91
2022-10-04T22:20:21.932Z,65387.91
2022-10-04T22:22:49.418Z,65387.91
2022-10-04T22:25:18.068Z,65387.91
2022-10-04T22:27:46.236Z,65387.91
2022-10-04T22:30:23.032Z,65387.91
2022-10-04T22:32:51.176Z,65387.91
2022-10-04T22:35:20.963Z,65387.91
2022-10-04T22:37:49.369Z,65387.91
2022-10-04T22:40:20.607Z,65387.91
2022-10-04T22:42:52.486Z,65387.91
2022-10-04T22:45:24.472Z,65387.91
2022-10-04T22:47:52.420Z,65387.91
2022-10-04T22:50:29.309Z,65387.91
2022-10-04T22:52:57.446Z,65387.91
2022-10-04T22:55:24.896Z,65387.91
2022-10-04T22:57:52.479Z,65387.91
2022-10-04T23:00:20.197Z,65387.91
2022-10-04T23:02:49.840Z,65387.91
2022-10-04T23:05:19.359Z,65387.91
2022-10-04T23:07:48.520Z,65387.91
2022-10-04T23:10:18.433Z,65387.91
2022-10-04T23:12:47.013Z,65387.91
2022-10-04T23:15:16.943Z,65387.91
2022-10-04T23:17:44.551Z,65387.91
2022-10-04T23:20:16.253Z,65387.91
2022-10-04T23:22:45.760Z,65387.91
2022-10-04T23:25:16.357Z,65387.91
2022-10-04T23:27:44.605Z,65387.91
2022-10-04T23:30:15.983Z,65387.91
2022-10-04T23:32:47.419Z,65387.91
2022-10-04T23:35:20.016Z,65387.91
2022-10-04T23:37:48.803Z,65387.91
2022-10-04T23:40:18.520Z,65387.91
2022-10-04T23:42:47.626Z,65387.91
2022-10-04T23:45:19.954Z,65387.91
2022-10-04T23:47:49.210Z,65387.91
2022-10-04T23:50:24.838Z,65387.91
2022-10-04T23:52:57.158Z,65387.91
2022-10-04T23:55:28.781Z,65387.91
2022-10-04T23:57:56.240Z,65387.91
